Time;durP1;ratioP1;P1;durP2;ratioP2;P2;SDS_P1;SDS_P2;PMS_P1;PMS_P2;Temp;Humidity;BMP_temperature;BMP_pressure;BME280_temperature;BME280_humidity;BME280_pressure;Samples;Min_cycle;Max_cycle;Signal;HPM_P1;HPM_P2
2023/11/12 00:01:22;;;;;;;28.95;5.10;;;13.10;99.90;;;12.86;100.00;99612.91;4219327;28;20105;-68
2023/11/12 00:03:22;;;;;;;32.85;5.72;;;13.20;99.90;;;12.79;100.00;99609.41;4218642;28;20544;-68
2023/11/12 00:05:23;;;;;;;44.38;6.53;;;13.20;99.90;;;12.89;100.00;99617.81;4218174;28;20588;-68
2023/11/12 00:07:24;;;;;;;33.35;7.20;;;13.20;99.90;;;12.91;100.00;99617.59;4219365;28;20024;-68
2023/11/12 00:09:25;;;;;;;29.38;6.53;;;13.30;99.90;;;12.90;100.00;99611.50;4219124;28;20039;-68
2023/11/12 00:11:26;;;;;;;30.55;6.43;;;13.30;99.90;;;12.99;100.00;99614.78;4219361;28;20380;-68
2023/11/12 00:13:27;;;;;;;33.65;6.10;;;13.40;99.90;;;13.02;100.00;99625.75;4218256;28;20024;-68
2023/11/12 00:15:28;;;;;;;30.98;6.65;;;13.40;99.90;;;13.00;100.00;99629.63;4223094;28;20073;-68
2023/11/12 00:17:29;;;;;;;28.98;5.22;;;13.40;99.90;;;12.98;100.00;99632.50;4220591;27;20031;-68
2023/11/12 00:19:32;;;;;;;34.22;5.53;;;13.40;99.90;;;13.00;100.00;99630.44;4238820;27;20034;-68
2023/11/12 00:21:33;;;;;;;33.17;5.78;;;13.40;99.90;;;12.95;100.00;99632.88;4227191;28;20070;-68
2023/11/12 00:23:36;;;;;;;25.42;5.68;;;13.40;99.90;;;12.96;100.00;99639.00;4219089;28;20036;-68
2023/11/12 00:25:36;;;;;;;31.88;7.65;;;13.30;99.90;;;13.00;100.00;99630.44;4234502;28;20030;-68
2023/11/12 00:27:37;;;;;;;35.70;6.35;;;13.40;99.90;;;12.98;100.00;99636.97;4234810;28;20032;-68
2023/11/12 00:29:40;;;;;;;27.63;6.20;;;13.40;99.90;;;12.86;100.00;99634.06;4218957;28;20080;-68
2023/11/12 00:31:41;;;;;;;24.38;6.40;;;13.30;99.90;;;12.78;100.00;99635.03;4218984;28;20024;-68
2023/11/12 00:33:42;;;;;;;22.08;5.25;;;13.20;99.90;;;12.73;100.00;99626.06;4226245;28;20042;-68
2023/11/12 00:35:42;;;;;;;26.88;4.80;;;13.20;99.90;;;12.69;100.00;99630.13;4217824;28;20032;-68
2023/11/12 00:37:43;;;;;;;24.60;5.13;;;13.10;99.90;;;12.68;100.00;99633.78;4218975;28;20501;-68
2023/11/12 00:39:45;;;;;;;22.25;5.57;;;13.10;99.90;;;12.74;100.00;99646.22;4234560;28;20430;-68
2023/11/12 00:41:45;;;;;;;28.83;5.28;;;13.10;99.90;;;12.72;100.00;99633.19;4218746;28;20020;-68
2023/11/12 00:43:46;;;;;;;22.45;5.53;;;13.10;99.90;;;12.66;100.00;99649.06;4218915;28;20036;-68
2023/11/12 00:45:59;;;;;;;21.55;4.43;;;13.10;99.90;;;12.64;100.00;99661.63;4234524;28;20028;-68
2023/11/12 00:48:00;;;;;;;24.55;4.85;;;13.10;99.90;;;12.76;100.00;99666.19;4229349;28;20471;-68
2023/11/12 00:50:01;;;;;;;24.73;5.78;;;13.10;99.90;;;12.88;100.00;99679.69;4220096;28;20027;-68
2023/11/12 00:52:03;;;;;;;20.30;4.03;;;13.20;99.90;;;12.90;100.00;99675.03;4222261;28;20019;-68
2023/11/12 00:54:04;;;;;;;22.40;6.22;;;13.20;99.90;;;12.88;100.00;99666.44;4227496;28;20130;-68
2023/11/12 00:56:07;;;;;;;20.13;4.60;;;13.20;99.90;;;12.88;100.00;99673.56;4218692;28;20464;-68
2023/11/12 00:58:08;;;;;;;22.98;5.07;;;13.30;99.90;;;12.85;100.00;99679.25;4234116;28;20100;-68
2023/11/12 01:00:10;;;;;;;22.50;5.88;;;13.20;99.90;;;12.81;100.00;99678.03;4220398;28;20023;-68
2023/11/12 01:02:15;;;;;;;30.65;6.18;;;13.30;99.90;;;12.81;100.00;99680.69;4227197;28;20020;-68
2023/11/12 01:04:15;;;;;;;25.35;5.43;;;13.20;99.90;;;12.82;100.00;99685.75;4235285;28;20020;-68
2023/11/12 01:06:16;;;;;;;18.05;4.35;;;13.20;99.90;;;12.84;100.00;99686.41;4234119;28;20073;-68
2023/11/12 01:08:17;;;;;;;27.10;5.65;;;13.20;99.90;;;12.77;100.00;99677.59;4234353;28;20035;-68
2023/11/12 01:10:18;;;;;;;33.80;6.65;;;13.20;99.90;;;12.72;100.00;99687.97;4225716;28;20020;-68
2023/11/12 01:12:19;;;;;;;28.75;6.55;;;13.20;99.90;;;12.65;100.00;99695.03;4230424;28;20031;-68
2023/11/12 01:14:20;;;;;;;36.08;8.57;;;13.10;99.90;;;12.59;100.00;99687.88;4235554;28;20073;-68
2023/11/12 01:16:21;;;;;;;27.50;6.18;;;13.10;99.90;;;12.51;100.00;99686.22;4235429;28;20102;-68
2023/11/12 01:18:22;;;;;;;25.90;6.05;;;13.00;99.90;;;12.45;100.00;99686.16;4233935;28;20020;-68
2023/11/12 01:20:23;;;;;;;29.15;5.60;;;12.90;99.90;;;12.35;100.00;99689.16;4223784;28;20438;-68
2023/11/12 01:22:23;;;;;;;27.63;6.15;;;12.80;99.90;;;12.33;100.00;99698.28;4217128;28;20571;-68
2023/11/12 01:24:26;;;;;;;30.42;6.47;;;12.80;99.90;;;12.28;100.00;99698.03;4219998;28;20514;-68
2023/11/12 01:26:27;;;;;;;39.08;6.90;;;12.70;99.90;;;12.28;100.00;99703.31;4226131;28;20475;-68
2023/11/12 01:28:32;;;;;;;37.10;7.50;;;12.70;99.90;;;12.26;100.00;99695.59;4229725;28;20043;-68
2023/11/12 01:30:33;;;;;;;35.92;5.97;;;12.70;99.90;;;12.16;100.00;99682.69;4233976;28;20024;-68
2023/11/12 01:32:34;;;;;;;35.25;5.68;;;12.60;99.90;;;12.14;100.00;99690.00;4233883;28;20081;-68
2023/11/12 01:34:35;;;;;;;37.05;7.13;;;12.60;99.90;;;12.04;100.00;99684.22;4226428;28;20050;-68
2023/11/12 01:36:36;;;;;;;38.45;7.72;;;12.50;99.90;;;12.16;100.00;99705.66;4217083;28;20457;-68
2023/11/12 01:38:36;;;;;;;39.53;7.15;;;12.50;99.90;;;12.16;100.00;99705.66;4224677;28;20024;-68
2023/11/12 01:40:41;;;;;;;43.53;7.10;;;12.50;99.90;;;12.15;100.00;99717.28;4233845;28;20604;-68
2023/11/12 01:42:45;;;;;;;;;;;12.50;99.90;;;12.26;100.00;99707.97;4238889;28;20492;-68
2023/11/12 01:44:46;;;;;;;51.53;8.17;;;12.60;99.90;;;12.35;100.00;99715.59;4231498;28;19934;-68
2023/11/12 01:46:48;;;;;;;42.45;8.35;;;12.70;99.90;;;12.37;100.00;99718.03;4219608;28;20270;-68
2023/11/12 01:48:49;;;;;;;42.90;7.72;;;12.70;99.90;;;12.43;100.00;99717.25;4218004;28;20028;-68
2023/11/12 01:50:50;;;;;;;46.95;7.95;;;12.80;99.90;;;12.45;100.00;99712.63;4216844;28;20086;-68
2023/11/12 01:52:52;;;;;;;47.30;10.48;;;12.80;99.90;;;12.57;100.00;99717.16;4241882;28;20023;-68
2023/11/12 01:54:54;;;;;;;35.70;9.10;;;12.90;99.90;;;12.67;100.00;99727.41;4218185;28;20085;-68
2023/11/12 01:56:56;;;;;;;42.42;9.00;;;13.00;99.90;;;12.76;100.00;99705.06;4220530;28;20016;-68
2023/11/12 01:58:58;;;;;;;39.90;7.88;;;13.10;99.90;;;12.79;100.00;99712.59;4232816;28;20072;-68
2023/11/12 02:01:00;;;;;;;50.00;8.27;;;13.10;99.90;;;12.70;100.00;99721.72;4232828;28;20036;-69
2023/11/12 02:03:04;;;;;;;48.67;9.60;;;13.10;99.90;;;12.70;100.00;99725.19;4220612;28;20050;-68
2023/11/12 02:05:06;;;;;;;35.17;8.77;;;13.10;99.90;;;12.75;100.00;99735.19;4217380;28;20031;-68
2023/11/12 02:07:07;;;;;;;41.05;8.32;;;13.10;99.90;;;12.81;100.00;99734.44;4217759;28;20031;-67
2023/11/12 02:09:09;;;;;;;43.08;8.55;;;13.20;99.90;;;12.83;100.00;99734.22;4217855;28;20032;-68
2023/11/12 02:11:12;;;;;;;42.00;8.82;;;13.20;99.90;;;12.76;100.00;99739.47;4228681;28;20439;-68
2023/11/12 02:13:13;;;;;;;38.70;7.28;;;13.20;99.90;;;12.80;100.00;99742.53;4235898;28;20035;-68
2023/11/12 02:15:17;;;;;;;38.88;8.93;;;13.20;99.90;;;12.92;100.00;99743.63;4223225;28;20028;-68
2023/11/12 02:17:17;;;;;;;38.80;7.93;;;13.20;99.90;;;12.91;100.00;99737.50;4217601;28;20024;-67
2023/11/12 02:19:26;;;;;;;43.75;7.75;;;13.30;99.90;;;12.97;100.00;99744.69;4219809;28;20113;-68
2023/11/12 02:21:32;;;;;;;37.33;7.65;;;13.30;99.90;;;12.99;100.00;99736.56;4227631;28;20109;-68
2023/11/12 02:23:38;;;;;;;35.55;6.43;;;13.30;99.90;;;12.93;100.00;99730.19;4232555;28;20032;-69
2023/11/12 02:25:39;;;;;;;39.92;8.68;;;13.30;99.90;;;12.88;100.00;99742.38;4235383;27;20506;-68
2023/11/12 02:27:40;;;;;;;38.88;7.40;;;13.30;99.90;;;12.94;100.00;99746.91;4232951;28;20053;-68
2023/11/12 02:29:48;;;;;;;31.95;7.43;;;13.30;99.90;;;13.00;100.00;99752.22;4220583;28;20063;-68
2023/11/12 02:31:50;;;;;;;43.25;8.88;;;13.30;99.90;;;13.05;100.00;99751.66;4229162;28;20080;-68
2023/11/12 02:33:50;;;;;;;36.40;6.45;;;13.40;99.90;;;13.07;100.00;99753.09;4227851;28;20039;-68
2023/11/12 02:35:51;;;;;;;37.38;7.90;;;13.50;99.90;;;13.10;100.00;99755.38;4221104;28;20023;-67
2023/11/12 02:37:52;;;;;;;32.17;7.10;;;13.40;99.90;;;12.94;100.00;99768.91;4228593;28;20035;-68
2023/11/12 02:39:53;;;;;;;30.27;6.47;;;13.30;99.90;;;12.90;100.00;99758.91;4220508;28;20024;-68
2023/11/12 02:41:55;;;;;;;26.33;6.68;;;13.30;99.90;;;12.90;100.00;99759.72;4220710;28;20028;-68
2023/11/12 02:43:56;;;;;;;37.35;6.22;;;13.30;99.90;;;13.04;100.00;99758.78;4220381;28;20052;-68
2023/11/12 02:45:57;;;;;;;27.30;5.28;;;13.40;99.90;;;13.06;100.00;99762.03;4218576;28;20556;-68
2023/11/12 02:47:58;;;;;;;30.10;6.65;;;13.40;99.90;;;13.00;100.00;99762.00;4219982;28;20556;-68
2023/11/12 02:50:05;;;;;;;35.15;6.20;;;13.40;99.90;;;12.97;100.00;99773.78;4220145;28;20395;-68
2023/11/12 02:52:06;;;;;;;31.27;7.18;;;13.30;99.90;;;12.88;100.00;99760.91;4220503;28;20030;-68
2023/11/12 02:54:07;;;;;;;27.20;5.90;;;13.30;99.90;;;12.88;100.00;99780.25;4225855;28;20034;-68
2023/11/12 02:56:08;;;;;;;31.90;6.20;;;13.30;99.90;;;12.94;100.00;99778.66;4219653;28;20028;-68
2023/11/12 02:58:10;;;;;;;33.90;6.18;;;13.30;99.90;;;12.94;100.00;99779.47;4230804;28;20391;-68
2023/11/12 03:00:14;;;;;;;29.05;5.97;;;13.30;99.90;;;12.98;100.00;99779.91;4220114;28;20022;-68
2023/11/12 03:02:15;;;;;;;33.15;7.53;;;13.30;99.90;;;12.99;100.00;99785.00;4220186;28;20024;-69
2023/11/12 03:04:15;;;;;;;26.83;6.80;;;13.30;99.90;;;12.99;100.00;99779.72;4225251;28;20062;-69
2023/11/12 03:06:16;;;;;;;34.63;6.85;;;13.30;99.90;;;13.04;100.00;99785.25;4222830;28;20428;-68
2023/11/12 03:08:17;;;;;;;26.27;6.57;;;13.40;99.90;;;13.06;100.00;99787.69;4236691;28;20023;-68
2023/11/12 03:10:18;;;;;;;29.13;7.20;;;13.40;99.90;;;12.97;100.00;99808.22;4233105;28;20034;-68
2023/11/12 03:12:19;;;;;;;30.73;6.82;;;13.40;99.90;;;12.94;100.00;99795.38;4223148;28;20105;-68
2023/11/12 03:14:21;;;;;;;40.35;6.60;;;13.30;99.90;;;12.91;100.00;99794.94;4222035;28;20027;-68
2023/11/12 03:16:23;;;;;;;34.47;8.07;;;13.30;99.90;;;12.79;100.00;99794.66;4219573;28;20028;-68
2023/11/12 03:18:24;;;;;;;35.33;6.45;;;13.20;99.90;;;12.82;100.00;99790.78;4219689;28;20032;-68
2023/11/12 03:20:25;;;;;;;33.65;7.43;;;13.20;99.90;;;12.67;100.00;99773.19;4234168;28;20540;-68
2023/11/12 03:22:26;;;;;;;35.42;8.25;;;13.10;99.90;;;12.60;100.00;99793.50;4221217;28;20028;-68
2023/11/12 03:24:27;;;;;;;37.15;7.72;;;13.00;99.90;;;12.59;100.00;99806.94;4223461;28;20042;-68
2023/11/12 03:26:28;;;;;;;40.97;7.88;;;13.00;99.90;;;12.79;100.00;99794.66;4228259;28;20100;-68
2023/11/12 03:28:29;;;;;;;41.20;8.88;;;13.10;99.90;;;12.77;100.00;99796.69;4235198;28;20029;-68
2023/11/12 03:30:29;;;;;;;37.10;7.32;;;13.20;99.90;;;12.80;100.00;99796.28;4229876;28;20019;-69
2023/11/12 03:32:30;;;;;;;34.40;6.78;;;13.10;99.90;;;12.83;100.00;99805.69;4219917;28;20024;-69
2023/11/12 03:34:32;;;;;;;38.13;6.72;;;13.20;99.90;;;12.88;100.00;99805.91;4232153;28;20040;-69
2023/11/12 03:36:33;;;;;;;32.17;6.55;;;13.20;99.90;;;12.98;100.00;99828.38;4225267;28;20028;-69
2023/11/12 03:38:33;;;;;;;33.65;5.97;;;13.20;99.90;;;12.95;100.00;99823.47;4219000;28;20031;-69
2023/11/12 03:40:34;;;;;;;37.67;6.32;;;13.30;99.90;;;12.97;100.00;99805.56;4219962;28;20093;-69
2023/11/12 03:42:35;;;;;;;39.10;7.45;;;13.30;99.90;;;12.92;100.00;99817.75;4219845;28;20024;-68
2023/11/12 03:44:36;;;;;;;36.50;7.00;;;13.30;99.90;;;12.97;100.00;99817.97;4226871;28;20035;-69
2023/11/12 03:46:37;;;;;;;36.47;7.47;;;13.30;99.90;;;12.89;100.00;99821.59;4222291;28;20028;-69
2023/11/12 03:48:38;;;;;;;35.35;8.13;;;13.30;99.90;;;12.90;100.00;99814.50;4219501;28;20020;-69
2023/11/12 03:50:39;;;;;;;45.03;9.10;;;13.30;99.90;;;12.97;100.00;99824.09;4219706;28;20073;-69
2023/11/12 03:52:40;;;;;;;43.03;7.28;;;13.30;99.90;;;13.00;100.00;99821.06;4229111;28;20100;-69
2023/11/12 03:54:41;;;;;;;33.25;7.95;;;13.30;99.90;;;12.99;100.00;99837.94;4227086;28;20027;-69
2023/11/12 03:56:42;;;;;;;37.75;7.50;;;13.30;99.90;;;13.01;100.00;99840.41;4219680;28;20057;-69
2023/11/12 03:58:43;;;;;;;35.58;7.15;;;13.40;99.90;;;12.98;100.00;99854.88;4219541;28;20036;-69
2023/11/12 04:00:44;;;;;;;35.42;5.38;;;13.30;99.90;;;13.03;100.00;99864.84;4218218;28;20020;-69
2023/11/12 04:02:45;;;;;;;36.88;6.50;;;13.40;99.90;;;12.97;100.00;99878.88;4219168;28;20491;-69
2023/11/12 04:04:46;;;;;;;37.40;6.00;;;13.40;99.90;;;12.98;100.00;99885.81;4238029;27;20414;-69
2023/11/12 04:06:47;;;;;;;34.92;7.93;;;13.30;99.90;;;12.84;100.00;99876.13;4219465;28;20491;-69
2023/11/12 04:08:48;;;;;;;31.05;6.40;;;13.30;99.90;;;12.73;100.00;99874.81;4219296;28;20024;-69
2023/11/12 04:10:48;;;;;;;29.73;7.18;;;13.20;99.90;;;12.65;100.00;99886.34;4219285;28;20050;-69
2023/11/12 04:12:50;;;;;;;39.58;7.15;;;13.10;99.90;;;12.62;100.00;99885.91;4219313;28;20024;-69
2023/11/12 04:14:50;;;;;;;36.78;7.07;;;13.10;99.90;;;12.62;100.00;99899.97;4219807;28;20020;-69
2023/11/12 04:16:51;;;;;;;38.97;6.57;;;13.10;99.90;;;12.69;100.00;99903.47;4218363;28;20023;-68
2023/11/12 04:18:53;;;;;;;37.22;6.95;;;13.10;99.90;;;12.88;100.00;99899.38;4218829;28;20495;-69
2023/11/12 04:20:54;;;;;;;36.95;5.68;;;13.20;99.90;;;12.85;100.00;99894.44;4232194;28;20026;-69
2023/11/12 04:22:58;;;;;;;34.30;5.72;;;13.20;99.90;;;12.82;100.00;99910.72;4219254;28;20032;-69
2023/11/12 04:24:59;;;;;;;26.42;5.68;;;13.20;99.90;;;12.83;100.00;99907.06;4242417;27;20031;-69
2023/11/12 04:26:59;;;;;;;23.50;5.78;;;13.20;99.90;;;12.90;100.00;99918.53;4222017;28;20040;-69
2023/11/12 04:29:06;;;;;;;28.08;5.35;;;13.20;99.90;;;12.96;100.00;99912.44;4218796;28;20051;-69
2023/11/12 04:31:08;;;;;;;30.40;5.15;;;13.30;99.90;;;12.84;100.00;99916.66;4224517;28;20398;-69
2023/11/12 04:33:09;;;;;;;30.05;5.53;;;13.30;99.90;;;12.78;100.00;99922.72;4229795;28;20022;-69
2023/11/12 04:35:11;;;;;;;35.80;6.95;;;13.20;99.90;;;12.66;100.00;99925.03;4231734;28;20076;-69
2023/11/12 04:37:13;;;;;;;23.88;4.65;;;13.10;99.90;;;12.61;100.00;99938.00;4219015;28;20111;-70
2023/11/12 04:39:14;;;;;;;32.50;6.50;;;13.00;99.90;;;12.67;100.00;99937.25;4223836;28;20118;-69
2023/11/12 04:41:17;;;;;;;33.83;7.38;;;13.00;99.90;;;12.60;100.00;99940.84;4226139;28;20020;-69
2023/11/12 04:43:18;;;;;;;30.05;6.35;;;13.00;99.90;;;12.64;100.00;99939.44;4218830;28;20024;-69
2023/11/12 04:45:19;;;;;;;31.75;7.35;;;13.00;99.90;;;12.72;100.00;99947.28;4225926;28;20028;-69
2023/11/12 04:47:20;;;;;;;29.75;6.13;;;13.10;99.90;;;12.60;100.00;99948.78;4234281;28;20027;-69
2023/11/12 04:49:22;;;;;;;28.45;5.80;;;13.00;99.90;;;12.55;100.00;99944.06;4218464;28;20051;-69
2023/11/12 04:51:23;;;;;;;31.13;7.25;;;12.90;99.90;;;12.47;100.00;99946.00;4218823;28;20028;-69
2023/11/12 04:53:23;;;;;;;29.77;5.65;;;12.90;99.90;;;12.46;100.00;99941.69;4218618;28;20021;-69
2023/11/12 04:55:24;;;;;;;35.50;6.07;;;12.80;99.90;;;12.40;100.00;99951.22;4223886;28;20061;-69
2023/11/12 04:57:25;;;;;;;31.27;6.90;;;12.80;99.90;;;12.38;100.00;99941.81;4218748;28;20021;-69
2023/11/12 04:59:26;;;;;;;26.17;5.07;;;12.80;99.90;;;12.30;100.00;99944.59;4218703;28;20028;-69
2023/11/12 05:01:27;;;;;;;28.48;5.65;;;12.70;99.90;;;12.29;100.00;99945.59;4234153;28;20023;-69
2023/11/12 05:03:27;;;;;;;34.83;5.57;;;12.60;99.90;;;12.19;100.00;99954.63;4217365;28;20035;-69
2023/11/12 05:05:28;;;;;;;40.53;5.63;;;12.60;99.90;;;12.27;100.00;99964.31;4220449;28;20028;-69
2023/11/12 05:07:29;;;;;;;33.72;6.07;;;12.60;99.90;;;12.18;100.00;99960.13;4218590;28;20028;-69
2023/11/12 05:09:30;;;;;;;39.42;7.15;;;12.50;99.90;;;12.13;100.00;99959.84;4218408;28;20031;-68
2023/11/12 05:11:31;;;;;;;34.67;8.10;;;12.50;99.90;;;12.01;100.00;99967.44;4218639;28;20028;-69
2023/11/12 05:13:31;;;;;;;29.52;6.35;;;12.50;99.90;;;12.02;100.00;99979.66;4218543;28;20027;-69
2023/11/12 05:15:33;;;;;;;26.00;6.55;;;12.40;99.90;;;11.95;100.00;99986.66;4218945;28;20084;-69
2023/11/12 05:17:33;;;;;;;34.90;6.35;;;12.30;99.90;;;11.93;100.00;99988.69;4218294;28;20024;-69
2023/11/12 05:19:34;;;;;;;30.88;6.30;;;12.30;99.90;;;12.02;100.00;99984.94;4223603;28;20038;-69
2023/11/12 05:21:35;;;;;;;34.08;6.90;;;12.30;99.90;;;11.99;100.00;99981.84;4227014;28;20077;-69
2023/11/12 05:23:36;;;;;;;42.03;6.80;;;12.30;99.90;;;11.99;100.00;99984.47;4218352;28;20020;-69
2023/11/12 05:25:37;;;;;;;51.03;7.95;;;12.30;99.90;;;11.96;100.00;99985.66;4229273;28;20050;-69
2023/11/12 05:27:38;;;;;;;41.90;7.75;;;12.30;99.90;;;11.98;100.00;99994.22;4218658;28;20024;-69
2023/11/12 05:29:39;;;;;;;45.95;7.70;;;12.30;99.90;;;11.97;100.00;99997.88;4218471;28;20024;-69
2023/11/12 05:31:40;;;;;;;45.88;6.80;;;12.30;99.90;;;12.04;100.00;100009.34;4218403;28;20024;-68
2023/11/12 05:33:41;;;;;;;45.10;8.10;;;12.40;99.90;;;12.00;100.00;100008.09;4225835;28;20490;-69
2023/11/12 05:35:42;;;;;;;45.00;7.85;;;12.40;99.90;;;12.01;100.00;100020.28;4226505;28;20035;-68
2023/11/12 05:37:43;;;;;;;45.30;8.68;;;12.40;99.90;;;11.97;100.00;100016.38;4218551;28;20020;-69
2023/11/12 05:39:44;;;;;;;43.40;8.70;;;12.30;99.90;;;11.94;100.00;100014.13;4218374;28;20035;-69
2023/11/12 05:41:45;;;;;;;44.63;8.88;;;12.30;99.90;;;11.96;100.00;100009.44;4218077;28;20053;-69
2023/11/12 05:43:50;;;;;;;41.47;6.57;;;12.30;99.90;;;12.02;100.00;100000.78;4218375;28;20028;-69
2023/11/12 05:45:51;;;;;;;37.20;6.72;;;12.30;99.90;;;12.03;100.00;100006.91;4224303;28;20020;-68
2023/11/12 05:47:52;;;;;;;36.90;6.80;;;12.30;99.90;;;11.95;100.00;100004.34;4233754;28;20062;-69
2023/11/12 05:49:52;;;;;;;48.03;8.38;;;12.40;99.90;;;12.02;100.00;100018.47;4218970;28;20032;-68
2023/11/12 05:51:53;;;;;;;46.80;6.70;;;12.30;99.90;;;11.98;100.00;100036.50;4221887;28;20020;-69
2023/11/12 05:53:54;;;;;;;32.08;6.95;;;12.30;99.90;;;11.95;100.00;100036.88;4235250;28;20024;-68
2023/11/12 05:55:55;;;;;;;39.35;7.40;;;12.30;99.90;;;11.85;100.00;100024.94;4224767;28;20028;-69
2023/11/12 05:57:57;;;;;;;36.08;7.03;;;12.30;99.90;;;11.80;100.00;100025.47;4218082;28;20027;-69
2023/11/12 05:59:58;;;;;;;33.47;6.00;;;12.20;99.90;;;11.75;100.00;100024.38;4218222;28;20024;-69
2023/11/12 06:01:58;;;;;;;37.58;8.93;;;12.10;99.90;;;11.83;100.00;100033.03;4221141;28;20028;-68
2023/11/12 06:04:00;;;;;;;40.67;7.22;;;12.20;99.90;;;11.79;100.00;100039.72;4236917;28;20513;-68
2023/11/12 06:06:01;;;;;;;34.67;5.80;;;12.20;99.90;;;11.83;100.00;100030.41;4222140;28;20035;-69
2023/11/12 06:08:03;;;;;;;34.20;6.45;;;12.20;99.90;;;11.80;100.00;100030.75;4221395;28;20032;-68
2023/11/12 06:10:05;;;;;;;46.38;8.05;;;12.20;99.90;;;11.76;100.00;100044.53;4236896;28;20023;-68
2023/11/12 06:12:07;;;;;;;35.05;7.60;;;12.10;99.90;;;11.78;100.00;100048.63;4221255;28;20024;-69
2023/11/12 06:14:08;;;;;;;31.58;6.97;;;12.20;99.90;;;11.78;100.00;100063.66;4221116;28;20016;-68
2023/11/12 06:16:09;;;;;;;40.83;7.63;;;12.20;99.90;;;11.80;100.00;100065.13;4236660;28;20034;-68
2023/11/12 06:18:10;;;;;;;37.05;8.13;;;12.20;99.90;;;11.80;100.00;100080.16;4230848;28;20020;-69
2023/11/12 06:20:11;;;;;;;41.40;7.85;;;12.10;99.90;;;11.78;100.00;100076.88;4231001;28;20053;-68
2023/11/12 06:22:12;;;;;;;35.15;7.65;;;12.10;99.90;;;11.69;100.00;100078.72;4224884;28;20028;-69
2023/11/12 06:24:12;;;;;;;40.42;7.30;;;12.10;99.90;;;11.66;100.00;100094.94;4236776;28;20453;-69
2023/11/12 06:26:13;;;;;;;38.00;7.80;;;12.10;99.90;;;11.57;100.00;100102.13;4230951;28;20039;-69
2023/11/12 06:28:16;;;;;;;46.25;8.48;;;12.00;99.90;;;11.77;100.00;100102.47;4236880;28;20019;-69
2023/11/12 06:30:17;;;;;;;45.25;8.23;;;12.00;99.90;;;11.70;100.00;100109.47;4219673;28;20036;-69
2023/11/12 06:32:18;;;;;;;42.58;8.85;;;12.00;99.90;;;11.70;100.00;100111.28;4220794;28;20020;-69
2023/11/12 06:34:19;;;;;;;36.60;9.43;;;12.10;99.90;;;11.80;100.00;100111.88;4228559;28;20419;-69
2023/11/12 06:36:19;;;;;;;46.13;8.32;;;12.10;99.90;;;11.76;100.00;100121.97;4226905;28;20090;-69
2023/11/12 06:38:20;;;;;;;55.17;9.68;;;12.10;99.90;;;11.83;100.00;100117.59;4223183;28;20398;-68
2023/11/12 06:40:21;;;;;;;47.88;7.13;;;12.10;99.90;;;11.90;100.00;100118.53;4220202;28;20039;-69
2023/11/12 06:42:23;;;;;;;38.85;7.63;;;12.20;99.90;;;12.05;100.00;100110.63;4220701;28;20020;-68
2023/11/12 06:44:24;;;;;;;30.73;7.03;;;12.30;99.90;;;11.96;100.00;100124.94;4220857;28;20024;-69
2023/11/12 06:46:25;;;;;;;48.88;8.45;;;12.30;99.90;;;12.17;100.00;100120.59;4220689;28;20020;-68
2023/11/12 06:48:26;;;;;;;42.50;8.80;;;12.30;99.90;;;12.11;100.00;100134.53;4220290;28;20070;-68
2023/11/12 06:50:27;;;;;;;40.53;7.72;;;12.40;99.90;;;12.14;100.00;100155.31;4220877;28;20024;-69
2023/11/12 06:52:28;;;;;;;28.15;6.45;;;12.40;99.90;;;12.13;100.00;100155.47;4220660;28;20057;-68
2023/11/12 06:54:28;;;;;;;31.02;7.32;;;12.50;99.90;;;12.19;100.00;100158.22;4220608;28;20117;-69
2023/11/12 06:56:33;;;;;;;38.50;7.55;;;12.50;99.90;;;12.27;100.00;100153.88;4220623;28;20023;-69
2023/11/12 06:58:34;;;;;;;43.45;6.78;;;12.50;99.90;;;12.19;100.00;100165.34;4236399;28;20016;-69
2023/11/12 07:00:35;;;;;;;37.80;8.02;;;12.50;99.90;;;12.10;100.00;100150.56;4219297;28;20101;-69
2023/11/12 07:02:37;;;;;;;35.38;6.85;;;12.50;99.90;;;12.01;100.00;100160.38;4220203;28;20028;-69
2023/11/12 07:04:38;;;;;;;42.22;6.22;;;12.40;99.90;;;12.05;100.00;100155.56;4221408;28;20020;-68
2023/11/12 07:06:39;;;;;;;31.00;5.93;;;12.40;99.90;;;12.01;100.00;100168.31;4220438;28;20099;-69
2023/11/12 07:08:40;;;;;;;44.65;7.95;;;12.40;99.90;;;12.02;100.00;100161.22;4220424;28;20020;-68
2023/11/12 07:10:41;;;;;;;40.35;7.50;;;12.30;99.90;;;12.15;100.00;100154.31;4220418;28;20040;-69
2023/11/12 07:12:42;;;;;;;32.47;7.28;;;12.40;99.90;;;12.19;100.00;100160.88;4218690;28;20028;-69
2023/11/12 07:14:43;;;;;;;38.90;8.27;;;12.50;99.90;;;12.09;100.00;100178.84;4220333;28;20495;-69
2023/11/12 07:16:44;;;;;;;34.85;5.95;;;12.50;99.90;;;12.10;100.00;100177.81;4220231;28;20029;-69
2023/11/12 07:18:45;;;;;;;33.25;6.68;;;12.50;99.90;;;12.09;100.00;100170.09;4219998;28;20028;-68
2023/11/12 07:20:46;;;;;;;42.53;8.77;;;12.50;99.90;;;12.17;100.00;100173.47;4250714;27;20478;-69
2023/11/12 07:22:47;;;;;;;34.42;6.70;;;12.50;99.90;;;12.27;100.00;100169.75;4237142;28;20023;-69
2023/11/12 07:24:48;;;;;;;30.63;6.85;;;12.60;99.90;;;12.23;100.00;100176.38;4235733;28;20383;-69
2023/11/12 07:26:49;;;;;;;26.42;5.72;;;12.60;99.90;;;12.31;100.00;100189.50;4224880;28;20094;-69
2023/11/12 07:28:51;;;;;;;25.90;4.85;;;12.60;99.90;;;12.33;100.00;100192.81;4233988;28;20032;-69
2023/11/12 07:30:52;;;;;;;28.95;6.22;;;12.60;99.90;;;12.33;100.00;100204.22;4236995;28;20027;-68
2023/11/12 07:32:53;;;;;;;26.98;6.18;;;12.70;99.90;;;12.35;100.00;100204.84;4235285;28;20047;-69
2023/11/12 07:34:54;;;;;;;27.88;6.18;;;12.70;99.90;;;12.37;100.00;100208.13;4229797;28;20023;-69
2023/11/12 07:36:54;;;;;;;25.88;6.13;;;12.70;99.90;;;12.45;100.00;100215.19;4223026;28;20476;-68
2023/11/12 07:38:55;;;;;;;21.90;5.85;;;12.80;99.90;;;12.44;100.00;100216.19;4219970;28;20035;-69
2023/11/12 07:40:56;;;;;;;24.33;5.43;;;12.80;99.90;;;12.46;100.00;100235.31;4225543;28;20027;-69
2023/11/12 07:42:57;;;;;;;33.10;5.82;;;12.80;99.90;;;12.46;100.00;100248.56;4226465;28;20028;-69
2023/11/12 07:44:58;;;;;;;26.77;5.55;;;12.80;99.90;;;12.48;100.00;100263.28;4219888;28;20024;-68
2023/11/12 07:46:59;;;;;;;21.75;5.82;;;12.80;99.90;;;12.42;100.00;100258.69;4219834;28;20034;-69
2023/11/12 07:49:00;;;;;;;20.40;4.35;;;12.80;99.90;;;12.48;100.00;100259.78;4219506;28;20028;-69
2023/11/12 07:51:01;;;;;;;24.13;5.88;;;12.80;99.90;;;12.53;100.00;100262.72;4219998;28;20020;-68
2023/11/12 07:53:03;;;;;;;24.58;5.97;;;12.80;99.90;;;12.50;100.00;100271.84;4231367;28;20019;-69
2023/11/12 07:55:05;;;;;;;25.27;6.30;;;12.80;99.90;;;12.49;100.00;100270.19;4219972;27;20017;-69
2023/11/12 07:57:06;;;;;;;28.40;5.38;;;12.80;99.90;;;12.49;100.00;100272.00;4219769;28;20107;-69
2023/11/12 07:59:08;;;;;;;28.75;5.55;;;12.80;99.90;;;12.47;100.00;100263.44;4219656;28;20081;-69
2023/11/12 08:01:11;;;;;;;22.65;4.85;;;12.80;99.90;;;12.45;100.00;100271.56;4219405;28;20034;-69
2023/11/12 08:03:12;;;;;;;21.52;3.60;;;12.80;99.90;;;12.42;100.00;100273.75;4219332;28;20440;-69
2023/11/12 08:05:13;;;;;;;22.23;4.30;;;12.80;99.90;;;12.43;100.00;100285.94;4219502;28;20039;-69
2023/11/12 08:07:14;;;;;;;27.45;5.32;;;12.80;99.90;;;12.41;100.00;100288.78;4219452;28;20036;-69
2023/11/12 08:09:15;;;;;;;20.27;5.20;;;12.80;99.90;;;12.43;100.00;100304.47;4219267;28;20156;-69
2023/11/12 08:11:16;;;;;;;25.15;5.47;;;12.80;99.90;;;12.43;100.00;100304.47;4219223;28;20031;-69
2023/11/12 08:13:17;;;;;;;24.15;5.13;;;12.80;99.90;;;12.43;100.00;100300.00;4219375;28;20020;-69
2023/11/12 08:15:18;;;;;;;21.45;5.13;;;12.70;99.90;;;12.48;100.00;100312.72;4219407;28;20020;-69
2023/11/12 08:17:18;;;;;;;28.25;4.68;;;12.80;99.90;;;12.48;100.00;100318.00;4228955;28;20034;-69
2023/11/12 08:19:19;;;;;;;20.02;4.93;;;12.80;99.90;;;12.49;100.00;100317.81;4223690;28;20020;-69